createdAt,value
2018-11-20T00:07:44.795Z,6.03
2018-11-20T00:18:08.879Z,4.47
2018-11-20T00:28:25.722Z,5.23
2018-11-20T00:38:49.886Z,5.20
2018-11-20T00:49:13.996Z,6.70
2018-11-20T00:59:38.316Z,5.87
2018-11-20T01:10:20.237Z,8.20
2018-11-20T01:20:42.889Z,7.93
2018-11-20T01:31:12.813Z,8.23
2018-11-20T01:41:34.673Z,6.13
2018-11-20T01:51:58.820Z,5.23
2018-11-20T02:02:34.751Z,6.17
2018-11-20T02:12:57.552Z,7.07
2018-11-20T02:23:22.369Z,5.63
2018-11-20T02:33:44.875Z,7.33
2018-11-20T02:44:18.032Z,6.10
2018-11-20T02:54:53.838Z,5.83
2018-11-20T03:05:26.024Z,7.03
2018-11-20T03:15:55.922Z,8.03
2018-11-20T03:26:18.990Z,5.97
2018-11-20T03:36:41.458Z,5.03
2018-11-20T03:47:05.692Z,8.67
2018-11-20T03:57:27.894Z,5.13
2018-11-20T04:08:03.975Z,5.17
2018-11-20T04:18:43.159Z,5.33
2018-11-20T04:29:13.769Z,5.37
2018-11-20T04:39:37.873Z,6.87
2018-11-20T04:49:56.471Z,7.43
2018-11-20T05:00:32.290Z,7.77
2018-11-20T05:10:56.420Z,8.13
2018-11-20T05:21:20.541Z,7.00
2018-11-20T05:31:39.495Z,5.37
2018-11-20T05:42:18.715Z,5.63
2018-11-20T05:52:48.178Z,5.67
2018-11-20T06:03:03.829Z,8.17
2018-11-20T06:13:26.574Z,7.63
2018-11-20T06:24:01.038Z,6.97
2018-11-20T06:34:20.876Z,4.73
2018-11-20T06:44:43.442Z,6.00
2018-11-20T06:55:06.005Z,6.03
2018-11-20T07:05:45.043Z,5.27
2018-11-20T07:16:37.902Z,6.80
2018-11-20T07:26:52.457Z,9.43
2018-11-20T07:37:14.970Z,7.27
2018-11-20T07:47:34.366Z,9.50
2018-11-20T07:57:58.500Z,7.17
2018-11-20T08:09:07.212Z,5.63
2018-11-20T08:19:34.163Z,8.47
2018-11-20T08:29:50.608Z,5.73
2018-11-20T08:40:12.072Z,10.70
2018-11-20T08:50:38.287Z,5.73
2018-11-20T09:01:04.449Z,7.93
2018-11-20T09:11:22.849Z,5.13
2018-11-20T09:21:44.849Z,5.03
2018-11-20T09:32:06.814Z,5.60
2018-11-20T09:42:27.854Z,5.13
2018-11-20T09:52:51.331Z,4.97
2018-11-20T10:03:12.797Z,7.33
2018-11-20T10:13:34.862Z,5.57
2018-11-20T10:34:11.214Z,4.00
2018-11-20T10:44:34.488Z,8.33
2018-11-20T10:55:03.082Z,5.50
2018-11-20T11:05:26.005Z,6.90
2018-11-20T11:15:55.265Z,7.40
2018-11-20T11:26:36.358Z,6.23
2018-11-20T11:36:55.296Z,6.33
2018-11-20T11:47:27.177Z,7.40
2018-11-20T11:57:47.102Z,7.27
2018-11-20T12:08:09.944Z,6.20
2018-11-20T12:18:31.431Z,9.53
2018-11-20T12:28:53.145Z,12.70
2018-11-20T12:39:27.202Z,10.47
2018-11-20T12:49:51.930Z,18.37
2018-11-20T13:00:19.855Z,12.87
2018-11-20T13:10:43.187Z,14.30
2018-11-20T13:21:04.708Z,17.30
2018-11-20T13:31:28.013Z,21.77
2018-11-20T13:41:55.158Z,17.87
2018-11-20T13:52:20.407Z,17.47
2018-11-20T14:02:55.671Z,15.20
2018-11-20T14:13:24.753Z,25.37
2018-11-20T14:24:05.761Z,21.00
2018-11-20T14:34:47.095Z,19.73
2018-11-20T14:45:19.212Z,18.13
2018-11-20T14:55:41.126Z,23.90
2018-11-20T15:06:13.097Z,14.43
2018-11-20T15:16:41.830Z,16.97
2018-11-20T15:27:03.858Z,17.47
2018-11-20T15:37:19.765Z,22.10
2018-11-20T15:47:39.675Z,22.20
2018-11-20T15:58:05.477Z,17.87
2018-11-20T16:08:28.782Z,18.80
2018-11-20T16:18:57.783Z,15.13
2018-11-20T16:29:24.067Z,14.27
2018-11-20T16:39:45.715Z,14.03
2018-11-20T16:50:11.758Z,15.27
2018-11-20T17:00:33.691Z,15.47
2018-11-20T17:10:56.226Z,19.43
2018-11-20T17:21:19.574Z,20.53
2018-11-20T17:31:51.977Z,17.13
2018-11-20T17:42:13.961Z,15.53
2018-11-20T17:52:37.303Z,18.30
2018-11-20T18:02:54.637Z,16.90
2018-11-20T18:13:31.764Z,18.83
2018-11-20T18:23:55.103Z,15.60
2018-11-20T18:34:12.579Z,14.27
2018-11-20T18:44:30.647Z,15.13
2018-11-20T18:54:57.225Z,14.10
2018-11-20T19:05:18.872Z,17.10
2018-11-20T19:15:54.171Z,15.37
2018-11-20T19:26:15.654Z,15.60
2018-11-20T19:36:41.821Z,15.80
2018-11-20T19:47:03.383Z,16.93
2018-11-20T19:57:24.030Z,16.70
2018-11-20T20:07:45.784Z,14.57
2018-11-20T20:18:07.393Z,15.07
2018-11-20T20:28:36.904Z,17.60
2018-11-20T20:39:06.189Z,17.40
2018-11-20T20:49:35.674Z,21.20
2018-11-20T21:00:07.831Z,15.13
2018-11-20T21:10:22.770Z,14.57
2018-11-20T21:20:44.550Z,17.47
2018-11-20T21:31:10.313Z,15.93
2018-11-20T21:41:36.669Z,16.83
2018-11-20T21:51:56.760Z,16.67
2018-11-20T22:02:18.522Z,16.27
2018-11-20T22:12:56.598Z,14.87
2018-11-20T22:23:18.190Z,15.03
2018-11-20T22:33:50.562Z,15.77
2018-11-20T22:44:28.834Z,16.17
2018-11-20T22:54:54.719Z,20.17
2018-11-20T23:05:15.303Z,17.00
2018-11-20T23:15:19.543Z,14.90
2018-11-20T23:25:23.785Z,14.90
2018-11-20T23:35:27.977Z,15.33
2018-11-20T23:45:32.192Z,19.23
2018-11-20T23:55:36.461Z,14.00
